sensor_id;sensor_type;location;lat;lon;timestamp;temperature;humidity
20911;DHT22;10615;42.702;23.314;2022-09-01T00:00:35;18.90;99.90
20911;DHT22;10615;42.702;23.314;2022-09-01T00:01:39;18.90;99.90
20911;DHT22;10615;42.702;23.314;2022-09-01T00:02:41;18.90;99.90
20911;DHT22;10615;42.702;23.314;2022-09-01T00:03:43;18.90;99.90
20911;DHT22;10615;42.702;23.314;2022-09-01T00:04:46;18.90;99.90
20911;DHT22;10615;42.702;23.314;2022-09-01T00:05:46;18.80;99.90
20911;DHT22;10615;42.702;23.314;2022-09-01T00:06:50;18.80;99.90
20911;DHT22;10615;42.702;23.314;2022-09-01T00:07:50;18.80;99.90
20911;DHT22;10615;42.702;23.314;2022-09-01T00:08:52;18.80;99.90
20911;DHT22;10615;42.702;23.314;2022-09-01T00:09:53;18.80;99.90
20911;DHT22;10615;42.702;23.314;2022-09-01T00:10:53;18.70;99.90
20911;DHT22;10615;42.702;23.314;2022-09-01T00:11:54;18.70;99.90
20911;DHT22;10615;42.702;23.314;2022-09-01T00:12:55;18.70;99.90
20911;DHT22;10615;42.702;23.314;2022-09-01T00:13:56;18.60;99.90
20911;DHT22;10615;42.702;23.314;2022-09-01T00:14:57;18.60;99.90
20911;DHT22;10615;42.702;23.314;2022-09-01T00:15:59;18.60;99.90
20911;DHT22;10615;42.702;23.314;2022-09-01T00:17:01;18.60;99.90
20911;DHT22;10615;42.702;23.314;2022-09-01T00:18:03;18.60;99.90
20911;DHT22;10615;42.702;23.314;2022-09-01T00:19:04;18.60;99.90
20911;DHT22;10615;42.702;23.314;2022-09-01T00:20:05;18.60;99.90
20911;DHT22;10615;42.702;23.314;2022-09-01T00:21:07;18.60;99.90
20911;DHT22;10615;42.702;23.314;2022-09-01T00:22:07;18.50;99.90
20911;DHT22;10615;42.702;23.314;2022-09-01T00:23:08;18.50;99.90
20911;DHT22;10615;42.702;23.314;2022-09-01T00:24:09;18.50;99.90
20911;DHT22;10615;42.702;23.314;2022-09-01T00:25:10;18.50;99.90
20911;DHT22;10615;42.702;23.314;2022-09-01T00:26:11;18.50;99.90
20911;DHT22;10615;42.702;23.314;2022-09-01T00:27:11;18.50;99.90
20911;DHT22;10615;42.702;23.314;2022-09-01T00:28:12;18.50;99.90
20911;DHT22;10615;42.702;23.314;2022-09-01T00:29:13;18.40;99.90
20911;DHT22;10615;42.702;23.314;2022-09-01T00:30:13;18.40;99.90
20911;DHT22;10615;42.702;23.314;2022-09-01T00:31:14;18.40;99.90
20911;DHT22;10615;42.702;23.314;2022-09-01T00:32:15;18.40;99.90
20911;DHT22;10615;42.702;23.314;2022-09-01T00:33:16;18.40;99.90
20911;DHT22;10615;42.702;23.314;2022-09-01T00:34:16;18.40;99.90
20911;DHT22;10615;42.702;23.314;2022-09-01T00:35:17;18.40;99.90
20911;DHT22;10615;42.702;23.314;2022-09-01T00:36:18;18.40;99.90
20911;DHT22;10615;42.702;23.314;2022-09-01T00:37:19;18.40;99.90
20911;DHT22;10615;42.702;23.314;2022-09-01T00:38:20;18.40;99.90
20911;DHT22;10615;42.702;23.314;2022-09-01T00:39:20;18.40;99.90
20911;DHT22;10615;42.702;23.314;2022-09-01T00:40:21;18.40;99.90
20911;DHT22;10615;42.702;23.314;2022-09-01T00:41:23;18.40;99.90
20911;DHT22;10615;42.702;23.314;2022-09-01T00:42:23;18.40;99.90
20911;DHT22;10615;42.702;23.314;2022-09-01T00:43:41;18.40;99.90
20911;DHT22;10615;42.702;23.314;2022-09-01T00:44:43;18.40;99.90
20911;DHT22;10615;42.702;23.314;2022-09-01T00:45:44;18.40;99.90
20911;DHT22;10615;42.702;23.314;2022-09-01T00:46:48;18.40;99.90
20911;DHT22;10615;42.702;23.314;2022-09-01T00:47:49;18.40;99.90
20911;DHT22;10615;42.702;23.314;2022-09-01T00:48:55;18.40;99.90
20911;DHT22;10615;42.702;23.314;2022-09-01T00:49:56;18.40;99.90
20911;DHT22;10615;42.702;23.314;2022-09-01T00:50:57;18.40;99.90
20911;DHT22;10615;42.702;23.314;2022-09-01T00:52:00;18.40;99.90
20911;DHT22;10615;42.702;23.314;2022-09-01T00:53:01;18.40;99.90
20911;DHT22;10615;42.702;23.314;2022-09-01T00:54:04;18.40;99.90
20911;DHT22;10615;42.702;23.314;2022-09-01T00:55:11;18.40;99.90
20911;DHT22;10615;42.702;23.314;2022-09-01T00:56:12;18.40;99.90
20911;DHT22;10615;42.702;23.314;2022-09-01T00:57:13;18.40;99.90
20911;DHT22;10615;42.702;23.314;2022-09-01T00:58:14;18.40;99.90
20911;DHT22;10615;42.702;23.314;2022-09-01T00:59:15;18.40;99.90
20911;DHT22;10615;42.702;23.314;2022-09-01T01:00:20;18.30;99.90
20911;DHT22;10615;42.702;23.314;2022-09-01T01:01:21;18.40;99.90
20911;DHT22;10615;42.702;23.314;2022-09-01T01:02:23;18.30;99.90
20911;DHT22;10615;42.702;23.314;2022-09-01T01:03:24;18.30;99.90
20911;DHT22;10615;42.702;23.314;2022-09-01T01:04:24;18.30;99.90
20911;DHT22;10615;42.702;23.314;2022-09-01T01:05:28;18.30;99.90
20911;DHT22;10615;42.702;23.314;2022-09-01T01:06:30;18.30;99.90
20911;DHT22;10615;42.702;23.314;2022-09-01T01:07:32;18.30;99.90
20911;DHT22;10615;42.702;23.314;2022-09-01T01:08:41;18.30;99.90
20911;DHT22;10615;42.702;23.314;2022-09-01T01:09:43;18.30;99.90
20911;DHT22;10615;42.702;23.314;2022-09-01T01:10:44;18.30;99.90
20911;DHT22;10615;42.702;23.314;2022-09-01T01:11:45;18.30;99.90
20911;DHT22;10615;42.702;23.314;2022-09-01T01:12:47;18.30;99.90
20911;DHT22;10615;42.702;23.314;2022-09-01T01:14:04;18.30;99.90
20911;DHT22;10615;42.702;23.314;2022-09-01T01:15:10;18.20;99.90
20911;DHT22;10615;42.702;23.314;2022-09-01T01:16:11;18.20;99.90
20911;DHT22;10615;42.702;23.314;2022-09-01T01:17:15;18.20;99.90
20911;DHT22;10615;42.702;23.314;2022-09-01T01:18:16;18.20;99.90
20911;DHT22;10615;42.702;23.314;2022-09-01T01:20:37;18.20;99.90
20911;DHT22;10615;42.702;23.314;2022-09-01T01:21:57;18.20;99.90
20911;DHT22;10615;42.702;23.314;2022-09-01T01:24:26;18.20;99.90
20911;DHT22;10615;42.702;23.314;2022-09-01T01:25:27;18.10;99.90
20911;DHT22;10615;42.702;23.314;2022-09-01T01:26:28;18.10;99.90
20911;DHT22;10615;42.702;23.314;2022-09-01T01:27:32;18.10;99.90
20911;DHT22;10615;42.702;23.314;2022-09-01T01:28:34;18.10;99.90
20911;DHT22;10615;42.702;23.314;2022-09-01T01:29:36;18.10;99.90
20911;DHT22;10615;42.702;23.314;2022-09-01T01:30:40;18.10;99.90
20911;DHT22;10615;42.702;23.314;2022-09-01T01:31:42;18.10;99.90
20911;DHT22;10615;42.702;23.314;2022-09-01T01:32:42;18.10;99.90
20911;DHT22;10615;42.702;23.314;2022-09-01T01:33:47;18.10;99.90
20911;DHT22;10615;42.702;23.314;2022-09-01T01:34:48;18.10;99.90
20911;DHT22;10615;42.702;23.314;2022-09-01T01:35:49;18.10;99.90
20911;DHT22;10615;42.702;23.314;2022-09-01T01:36:51;18.00;99.90
20911;DHT22;10615;42.702;23.314;2022-09-01T01:37:51;18.00;99.90
20911;DHT22;10615;42.702;23.314;2022-09-01T01:38:53;18.00;99.90
20911;DHT22;10615;42.702;23.314;2022-09-01T01:39:54;17.90;99.90
20911;DHT22;10615;42.702;23.314;2022-09-01T01:40:55;17.90;99.90
20911;DHT22;10615;42.702;23.314;2022-09-01T01:41:56;17.80;99.90
20911;DHT22;10615;42.702;23.314;2022-09-01T01:42:57;17.80;99.90
20911;DHT22;10615;42.702;23.314;2022-09-01T01:43:59;17.80;99.90
20911;DHT22;10615;42.702;23.314;2022-09-01T01:45:00;17.80;99.90
20911;DHT22;10615;42.702;23.314;2022-09-01T01:46:03;17.70;99.90
20911;DHT22;10615;42.702;23.314;2022-09-01T01:47:05;17.70;99.90
20911;DHT22;10615;42.702;23.314;2022-09-01T01:48:07;17.70;99.90
20911;DHT22;10615;42.702;23.314;2022-09-01T01:49:10;17.70;99.90
20911;DHT22;10615;42.702;23.314;2022-09-01T01:50:12;17.70;99.90
20911;DHT22;10615;42.702;23.314;2022-09-01T01:51:16;17.70;99.90
20911;DHT22;10615;42.702;23.314;2022-09-01T01:52:17;17.70;99.90
20911;DHT22;10615;42.702;23.314;2022-09-01T01:53:20;17.70;99.90
20911;DHT22;10615;42.702;23.314;2022-09-01T01:54:24;17.70;99.90
20911;DHT22;10615;42.702;23.314;2022-09-01T01:55:26;17.70;99.90
20911;DHT22;10615;42.702;23.314;2022-09-01T01:56:30;17.70;99.90
20911;DHT22;10615;42.702;23.314;2022-09-01T01:57:32;17.70;99.90
20911;DHT22;10615;42.702;23.314;2022-09-01T01:58:34;17.70;99.90
20911;DHT22;10615;42.702;23.314;2022-09-01T01:59:36;17.70;99.90
20911;DHT22;10615;42.702;23.314;2022-09-01T02:00:40;17.70;99.90
20911;DHT22;10615;42.702;23.314;2022-09-01T02:01:46;17.70;99.90
20911;DHT22;10615;42.702;23.314;2022-09-01T02:02:49;17.70;99.90
20911;DHT22;10615;42.702;23.314;2022-09-01T02:03:52;17.70;99.90
20911;DHT22;10615;42.702;23.314;2022-09-01T02:04:54;17.70;99.90
20911;DHT22;10615;42.702;23.314;2022-09-01T02:05:54;17.70;99.90
20911;DHT22;10615;42.702;23.314;2022-09-01T02:06:55;17.70;99.90
20911;DHT22;10615;42.702;23.314;2022-09-01T02:07:56;17.70;99.90
20911;DHT22;10615;42.702;23.314;2022-09-01T02:08:59;17.60;99.90
20911;DHT22;10615;42.702;23.314;2022-09-01T02:10:00;17.70;99.90
20911;DHT22;10615;42.702;23.314;2022-09-01T02:11:02;17.70;99.90
20911;DHT22;10615;42.702;23.314;2022-09-01T02:12:03;17.70;99.90
20911;DHT22;10615;42.702;23.314;2022-09-01T02:13:04;17.70;99.90
20911;DHT22;10615;42.702;23.314;2022-09-01T02:14:06;17.70;99.90
20911;DHT22;10615;42.702;23.314;2022-09-01T02:15:08;17.70;99.90
20911;DHT22;10615;42.702;23.314;2022-09-01T02:16:11;17.70;99.90
20911;DHT22;10615;42.702;23.314;2022-09-01T02:17:12;17.70;99.90
20911;DHT22;10615;42.702;23.314;2022-09-01T02:18:20;17.70;99.90
20911;DHT22;10615;42.702;23.314;2022-09-01T02:19:21;17.70;99.90
20911;DHT22;10615;42.702;23.314;2022-09-01T02:20:21;17.70;99.90
20911;DHT22;10615;42.702;23.314;2022-09-01T02:21:27;17.70;99.90
20911;DHT22;10615;42.702;23.314;2022-09-01T02:22:28;17.70;99.90
20911;DHT22;10615;42.702;23.314;2022-09-01T02:23:28;17.60;99.90
20911;DHT22;10615;42.702;23.314;2022-09-01T02:24:29;17.70;99.90
20911;DHT22;10615;42.702;23.314;2022-09-01T02:25:30;17.70;99.90
20911;DHT22;10615;42.702;23.314;2022-09-01T02:26:35;17.70;99.90
20911;DHT22;10615;42.702;23.314;2022-09-01T02:27:37;17.60;99.90
20911;DHT22;10615;42.702;23.314;2022-09-01T02:28:39;17.70;99.90
20911;DHT22;10615;42.702;23.314;2022-09-01T02:29:41;17.70;99.90
20911;DHT22;10615;42.702;23.314;2022-09-01T02:30:43;17.70;99.90
20911;DHT22;10615;42.702;23.314;2022-09-01T02:31:45;17.60;99.90
20911;DHT22;10615;42.702;23.314;2022-09-01T02:32:46;17.70;99.90
20911;DHT22;10615;42.702;23.314;2022-09-01T02:33:46;17.60;99.90
20911;DHT22;10615;42.702;23.314;2022-09-01T02:34:48;17.60;99.90
20911;DHT22;10615;42.702;23.314;2022-09-01T02:35:53;17.60;99.90
20911;DHT22;10615;42.702;23.314;2022-09-01T02:36:55;17.60;99.90
20911;DHT22;10615;42.702;23.314;2022-09-01T02:37:56;17.50;99.90
20911;DHT22;10615;42.702;23.314;2022-09-01T02:39:00;17.50;99.90
20911;DHT22;10615;42.702;23.314;2022-09-01T02:40:00;17.50;99.90
20911;DHT22;10615;42.702;23.314;2022-09-01T02:41:02;17.50;99.90
20911;DHT22;10615;42.702;23.314;2022-09-01T02:42:02;17.50;99.90
20911;DHT22;10615;42.702;23.314;2022-09-01T02:43:03;17.50;99.90
20911;DHT22;10615;42.702;23.314;2022-09-01T02:44:05;17.50;99.90
20911;DHT22;10615;42.702;23.314;2022-09-01T02:45:10;17.50;99.90
20911;DHT22;10615;42.702;23.314;2022-09-01T02:46:15;17.50;99.90
20911;DHT22;10615;42.702;23.314;2022-09-01T02:47:16;17.40;99.90
20911;DHT22;10615;42.702;23.314;2022-09-01T02:48:17;17.40;99.90
20911;DHT22;10615;42.702;23.314;2022-09-01T02:49:19;17.40;99.90
20911;DHT22;10615;42.702;23.314;2022-09-01T02:50:24;17.40;99.90
20911;DHT22;10615;42.702;23.314;2022-09-01T02:51:25;17.40;99.90
20911;DHT22;10615;42.702;23.314;2022-09-01T02:52:26;17.30;99.90
20911;DHT22;10615;42.702;23.314;2022-09-01T02:53:29;17.30;99.90
20911;DHT22;10615;42.702;23.314;2022-09-01T02:54:30;17.30;99.90
20911;DHT22;10615;42.702;23.314;2022-09-01T02:55:31;17.30;99.90
20911;DHT22;10615;42.702;23.314;2022-09-01T02:56:32;17.30;99.90
20911;DHT22;10615;42.702;23.314;2022-09-01T02:57:32;17.30;99.90
20911;DHT22;10615;42.702;23.314;2022-09-01T02:58:34;17.30;99.90
20911;DHT22;10615;42.702;23.314;2022-09-01T02:59:40;17.30;99.90
20911;DHT22;10615;42.702;23.314;2022-09-01T03:00:42;17.20;99.90
20911;DHT22;10615;42.702;23.314;2022-09-01T03:01:43;17.20;99.90
20911;DHT22;10615;42.702;23.314;2022-09-01T03:02:47;17.20;99.90
20911;DHT22;10615;42.702;23.314;2022-09-01T03:03:52;17.20;99.90
20911;DHT22;10615;42.702;23.314;2022-09-01T03:04:54;17.20;99.90
20911;DHT22;10615;42.702;23.314;2022-09-01T03:05:54;17.20;99.90
20911;DHT22;10615;42.702;23.314;2022-09-01T03:06:55;17.20;99.90
20911;DHT22;10615;42.702;23.314;2022-09-01T03:07:58;17.10;99.90
20911;DHT22;10615;42.702;23.314;2022-09-01T03:08:59;17.10;99.90
20911;DHT22;10615;42.702;23.314;2022-09-01T03:10:00;17.10;99.90
20911;DHT22;10615;42.702;23.314;2022-09-01T03:11:02;17.10;99.90
20911;DHT22;10615;42.702;23.314;2022-09-01T03:12:03;17.10;99.90
20911;DHT22;10615;42.702;23.314;2022-09-01T03:13:07;17.10;99.90
20911;DHT22;10615;42.702;23.314;2022-09-01T03:14:08;17.10;99.90
20911;DHT22;10615;42.702;23.314;2022-09-01T03:15:09;17.10;99.90
20911;DHT22;10615;42.702;23.314;2022-09-01T03:16:11;17.10;99.90
20911;DHT22;10615;42.702;23.314;2022-09-01T03:17:12;17.20;99.90
20911;DHT22;10615;42.702;23.314;2022-09-01T03:18:13;17.10;99.90
20911;DHT22;10615;42.702;23.314;2022-09-01T03:19:14;17.20;99.90
20911;DHT22;10615;42.702;23.314;2022-09-01T03:20:15;17.20;99.90
20911;DHT22;10615;42.702;23.314;2022-09-01T03:21:19;17.20;99.90
20911;DHT22;10615;42.702;23.314;2022-09-01T03:22:20;17.20;99.90
20911;DHT22;10615;42.702;23.314;2022-09-01T03:23:22;17.20;99.90
20911;DHT22;10615;42.702;23.314;2022-09-01T03:24:24;17.20;99.90
20911;DHT22;10615;42.702;23.314;2022-09-01T03:25:25;17.20;99.90
20911;DHT22;10615;42.702;23.314;2022-09-01T03:26:28;17.20;99.90
20911;DHT22;10615;42.702;23.314;2022-09-01T03:27:29;17.20;99.90
20911;DHT22;10615;42.702;23.314;2022-09-01T03:28:29;17.10;99.90
20911;DHT22;10615;42.702;23.314;2022-09-01T03:29:31;17.20;99.90
20911;DHT22;10615;42.702;23.314;2022-09-01T03:30:32;17.10;99.90
20911;DHT22;10615;42.702;23.314;2022-09-01T03:31:33;17.10;99.90
20911;DHT22;10615;42.702;23.314;2022-09-01T03:32:34;17.20;99.90
20911;DHT22;10615;42.702;23.314;2022-09-01T03:33:34;17.10;99.90
20911;DHT22;10615;42.702;23.314;2022-09-01T03:34:36;17.10;99.90
20911;DHT22;10615;42.702;23.314;2022-09-01T03:35:36;17.20;99.90
20911;DHT22;10615;42.702;23.314;2022-09-01T03:36:37;17.20;99.90
20911;DHT22;10615;42.702;23.314;2022-09-01T03:37:39;17.20;99.90
20911;DHT22;10615;42.702;23.314;2022-09-01T03:38:44;17.20;99.90
20911;DHT22;10615;42.702;23.314;2022-09-01T03:39:47;17.20;99.90
20911;DHT22;10615;42.702;23.314;2022-09-01T03:40:52;17.20;99.90
20911;DHT22;10615;42.702;23.314;2022-09-01T03:41:53;17.20;99.90
20911;DHT22;10615;42.702;23.314;2022-09-01T03:42:55;17.20;99.90
20911;DHT22;10615;42.702;23.314;2022-09-01T03:43:56;17.20;99.90
20911;DHT22;10615;42.702;23.314;2022-09-01T03:44:58;17.20;99.90
20911;DHT22;10615;42.702;23.314;2022-09-01T03:45:58;17.30;99.90
20911;DHT22;10615;42.702;23.314;2022-09-01T03:46:59;17.30;99.90
20911;DHT22;10615;42.702;23.314;2022-09-01T03:48:00;17.30;99.90
20911;DHT22;10615;42.702;23.314;2022-09-01T03:49:08;17.30;99.90
20911;DHT22;10615;42.702;23.314;2022-09-01T03:50:15;17.30;99.90
20911;DHT22;10615;42.702;23.314;2022-09-01T03:51:25;17.20;99.90
20911;DHT22;10615;42.702;23.314;2022-09-01T03:52:30;17.20;99.90
20911;DHT22;10615;42.702;23.314;2022-09-01T03:53:32;17.30;99.90
20911;DHT22;10615;42.702;23.314;2022-09-01T03:54:34;17.30;99.90
20911;DHT22;10615;42.702;23.314;2022-09-01T03:55:35;17.30;99.90
20911;DHT22;10615;42.702;23.314;2022-09-01T03:56:37;17.30;99.90
20911;DHT22;10615;42.702;23.314;2022-09-01T03:57:41;17.30;99.90
20911;DHT22;10615;42.702;23.314;2022-09-01T03:58:42;17.30;99.90
20911;DHT22;10615;42.702;23.314;2022-09-01T03:59:46;17.30;99.90
20911;DHT22;10615;42.702;23.314;2022-09-01T04:00:48;17.30;99.90
20911;DHT22;10615;42.702;23.314;2022-09-01T04:01:49;17.30;99.90
20911;DHT22;10615;42.702;23.314;2022-09-01T04:02:50;17.30;99.90
20911;DHT22;10615;42.702;23.314;2022-09-01T04:03:51;17.30;99.90
20911;DHT22;10615;42.702;23.314;2022-09-01T04:04:52;17.30;99.90
20911;DHT22;10615;42.702;23.314;2022-09-01T04:05:53;17.30;99.90
20911;DHT22;10615;42.702;23.314;2022-09-01T04:06:53;17.40;99.90
20911;DHT22;10615;42.702;23.314;2022-09-01T04:07:58;17.40;99.90
20911;DHT22;10615;42.702;23.314;2022-09-01T04:09:02;17.30;99.90
20911;DHT22;10615;42.702;23.314;2022-09-01T04:10:03;17.30;99.90
20911;DHT22;10615;42.702;23.314;2022-09-01T04:11:09;17.30;99.90
20911;DHT22;10615;42.702;23.314;2022-09-01T04:12:10;17.30;99.90
20911;DHT22;10615;42.702;23.314;2022-09-01T04:13:12;17.30;99.90
20911;DHT22;10615;42.702;23.314;2022-09-01T04:14:13;17.30;99.90
20911;DHT22;10615;42.702;23.314;2022-09-01T04:15:15;17.40;99.90
20911;DHT22;10615;42.702;23.314;2022-09-01T04:16:21;17.40;99.90
20911;DHT22;10615;42.702;23.314;2022-09-01T04:17:40;17.40;99.90
20911;DHT22;10615;42.702;23.314;2022-09-01T04:19:00;17.40;99.90
20911;DHT22;10615;42.702;23.314;2022-09-01T04:20:00;17.40;99.90
20911;DHT22;10615;42.702;23.314;2022-09-01T04:21:08;17.40;99.90
20911;DHT22;10615;42.702;23.314;2022-09-01T04:22:09;17.40;99.90
20911;DHT22;10615;42.702;23.314;2022-09-01T04:24:16;17.40;99.90
20911;DHT22;10615;42.702;23.314;2022-09-01T04:25:18;17.50;99.90
20911;DHT22;10615;42.702;23.314;2022-09-01T04:26:26;17.50;99.90
20911;DHT22;10615;42.702;23.314;2022-09-01T04:27:30;17.50;99.90
20911;DHT22;10615;42.702;23.314;2022-09-01T04:28:32;17.50;99.90
20911;DHT22;10615;42.702;23.314;2022-09-01T04:29:35;17.60;99.90
20911;DHT22;10615;42.702;23.314;2022-09-01T04:30:36;17.60;99.90
20911;DHT22;10615;42.702;23.314;2022-09-01T04:31:39;17.70;99.90
20911;DHT22;10615;42.702;23.314;2022-09-01T04:32:41;17.60;99.90
20911;DHT22;10615;42.702;23.314;2022-09-01T04:33:46;17.70;99.90
20911;DHT22;10615;42.702;23.314;2022-09-01T04:34:47;17.70;99.90
20911;DHT22;10615;42.702;23.314;2022-09-01T04:35:47;17.70;99.90
20911;DHT22;10615;42.702;23.314;2022-09-01T04:36:50;17.80;99.90
20911;DHT22;10615;42.702;23.314;2022-09-01T04:37:54;17.80;99.90
20911;DHT22;10615;42.702;23.314;2022-09-01T04:38:56;17.90;99.90
20911;DHT22;10615;42.702;23.314;2022-09-01T04:39:57;17.90;99.90
20911;DHT22;10615;42.702;23.314;2022-09-01T04:40:58;17.90;99.90
20911;DHT22;10615;42.702;23.314;2022-09-01T04:42:02;17.90;99.90
20911;DHT22;10615;42.702;23.314;2022-09-01T04:43:05;18.00;99.90
20911;DHT22;10615;42.702;23.314;2022-09-01T04:44:06;18.10;99.90
20911;DHT22;10615;42.702;23.314;2022-09-01T04:45:07;18.10;99.90
20911;DHT22;10615;42.702;23.314;2022-09-01T04:46:10;18.20;99.90
20911;DHT22;10615;42.702;23.314;2022-09-01T04:47:13;18.20;99.90
20911;DHT22;10615;42.702;23.314;2022-09-01T04:48:14;18.30;99.90
20911;DHT22;10615;42.702;23.314;2022-09-01T04:49:16;18.30;99.90
20911;DHT22;10615;42.702;23.314;2022-09-01T04:50:21;18.40;99.90
20911;DHT22;10615;42.702;23.314;2022-09-01T04:51:23;18.50;99.90
20911;DHT22;10615;42.702;23.314;2022-09-01T04:52:27;18.60;99.90
20911;DHT22;10615;42.702;23.314;2022-09-01T04:53:27;18.70;99.90
20911;DHT22;10615;42.702;23.314;2022-09-01T04:54:28;18.80;99.90
20911;DHT22;10615;42.702;23.314;2022-09-01T04:55:34;19.00;99.90
20911;DHT22;10615;42.702;23.314;2022-09-01T04:56:38;19.20;99.90
20911;DHT22;10615;42.702;23.314;2022-09-01T04:57:38;19.50;99.90
20911;DHT22;10615;42.702;23.314;2022-09-01T04:58:41;19.80;99.90
20911;DHT22;10615;42.702;23.314;2022-09-01T04:59:42;20.00;99.90
20911;DHT22;10615;42.702;23.314;2022-09-01T05:00:46;20.10;99.90
20911;DHT22;10615;42.702;23.314;2022-09-01T05:01:47;20.40;99.90
20911;DHT22;10615;42.702;23.314;2022-09-01T05:02:53;20.60;99.90
20911;DHT22;10615;42.702;23.314;2022-09-01T05:03:54;21.00;99.60
20911;DHT22;10615;42.702;23.314;2022-09-01T05:05:01;21.50;98.40
20911;DHT22;10615;42.702;23.314;2022-09-01T05:06:02;21.90;96.90
20911;DHT22;10615;42.702;23.314;2022-09-01T05:07:03;22.30;95.80
20911;DHT22;10615;42.702;23.314;2022-09-01T05:08:11;22.50;94.40
20911;DHT22;10615;42.702;23.314;2022-09-01T05:09:14;22.70;93.20
20911;DHT22;10615;42.702;23.314;2022-09-01T05:10:16;22.90;91.30
20911;DHT22;10615;42.702;23.314;2022-09-01T05:11:18;23.00;90.70
20911;DHT22;10615;42.702;23.314;2022-09-01T05:12:18;23.00;89.90
20911;DHT22;10615;42.702;23.314;2022-09-01T05:13:22;23.00;87.50
20911;DHT22;10615;42.702;23.314;2022-09-01T05:14:23;23.00;86.70
20911;DHT22;10615;42.702;23.314;2022-09-01T05:15:25;22.90;86.30
20911;DHT22;10615;42.702;23.314;2022-09-01T05:16:25;22.90;85.80
20911;DHT22;10615;42.702;23.314;2022-09-01T05:17:27;22.80;85.50
20911;DHT22;10615;42.702;23.314;2022-09-01T05:18:28;22.80;85.00
20911;DHT22;10615;42.702;23.314;2022-09-01T05:19:29;22.90;85.20
20911;DHT22;10615;42.702;23.314;2022-09-01T05:20:30;23.30;85.30
20911;DHT22;10615;42.702;23.314;2022-09-01T05:21:31;23.50;84.00
20911;DHT22;10615;42.702;23.314;2022-09-01T05:22:31;23.80;83.20
20911;DHT22;10615;42.702;23.314;2022-09-01T05:23:32;24.10;82.00
20911;DHT22;10615;42.702;23.314;2022-09-01T05:24:33;24.30;80.90
20911;DHT22;10615;42.702;23.314;2022-09-01T05:25:38;24.40;79.50
20911;DHT22;10615;42.702;23.314;2022-09-01T05:26:39;24.50;78.50
20911;DHT22;10615;42.702;23.314;2022-09-01T05:27:41;24.50;77.80
20911;DHT22;10615;42.702;23.314;2022-09-01T05:28:51;24.50;76.80
20911;DHT22;10615;42.702;23.314;2022-09-01T05:29:53;24.50;75.80
20911;DHT22;10615;42.702;23.314;2022-09-01T05:30:53;24.50;76.20
20911;DHT22;10615;42.702;23.314;2022-09-01T05:31:54;24.70;75.60
20911;DHT22;10615;42.702;23.314;2022-09-01T05:32:55;24.70;75.20
20911;DHT22;10615;42.702;23.314;2022-09-01T05:33:55;24.70;75.00
20911;DHT22;10615;42.702;23.314;2022-09-01T05:34:57;24.70;74.70
20911;DHT22;10615;42.702;23.314;2022-09-01T05:35:57;24.60;74.40
20911;DHT22;10615;42.702;23.314;2022-09-01T05:37:01;24.50;74.40
20911;DHT22;10615;42.702;23.314;2022-09-01T05:38:02;24.50;74.50
20911;DHT22;10615;42.702;23.314;2022-09-01T05:39:03;24.50;74.70
20911;DHT22;10615;42.702;23.314;2022-09-01T05:40:04;24.40;75.20
20911;DHT22;10615;42.702;23.314;2022-09-01T05:41:05;24.30;74.60
20911;DHT22;10615;42.702;23.314;2022-09-01T05:42:08;24.10;74.20
20911;DHT22;10615;42.702;23.314;2022-09-01T05:43:09;23.90;74.50
20911;DHT22;10615;42.702;23.314;2022-09-01T05:44:12;23.70;75.20
20911;DHT22;10615;42.702;23.314;2022-09-01T05:45:13;23.60;75.70
20911;DHT22;10615;42.702;23.314;2022-09-01T05:46:18;23.50;76.20
20911;DHT22;10615;42.702;23.314;2022-09-01T05:47:19;23.40;76.70
20911;DHT22;10615;42.702;23.314;2022-09-01T05:48:21;23.30;77.00
20911;DHT22;10615;42.702;23.314;2022-09-01T05:49:22;23.20;77.10
20911;DHT22;10615;42.702;23.314;2022-09-01T05:50:23;23.10;77.50
20911;DHT22;10615;42.702;23.314;2022-09-01T05:51:28;23.00;77.80
20911;DHT22;10615;42.702;23.314;2022-09-01T05:52:34;22.80;78.30
20911;DHT22;10615;42.702;23.314;2022-09-01T05:53:37;22.60;78.80
20911;DHT22;10615;42.702;23.314;2022-09-01T05:54:37;22.50;79.60
20911;DHT22;10615;42.702;23.314;2022-09-01T05:55:38;22.40;80.10
20911;DHT22;10615;42.702;23.314;2022-09-01T05:56:38;22.20;80.70
20911;DHT22;10615;42.702;23.314;2022-09-01T05:57:41;22.20;81.60
20911;DHT22;10615;42.702;23.314;2022-09-01T05:58:42;22.10;81.90
20911;DHT22;10615;42.702;23.314;2022-09-01T05:59:44;22.00;82.30
20911;DHT22;10615;42.702;23.314;2022-09-01T06:00:48;21.90;82.70
20911;DHT22;10615;42.702;23.314;2022-09-01T06:01:48;21.90;83.00
20911;DHT22;10615;42.702;23.314;2022-09-01T06:02:49;21.80;83.80
20911;DHT22;10615;42.702;23.314;2022-09-01T06:03:51;21.80;84.20
20911;DHT22;10615;42.702;23.314;2022-09-01T06:04:54;21.80;84.50
20911;DHT22;10615;42.702;23.314;2022-09-01T06:06:00;21.80;84.70
20911;DHT22;10615;42.702;23.314;2022-09-01T06:07:00;21.60;84.70
20911;DHT22;10615;42.702;23.314;2022-09-01T06:08:03;21.60;85.60
20911;DHT22;10615;42.702;23.314;2022-09-01T06:09:06;21.70;85.90
20911;DHT22;10615;42.702;23.314;2022-09-01T06:10:07;21.80;85.70
20911;DHT22;10615;42.702;23.314;2022-09-01T06:11:08;21.90;85.60
20911;DHT22;10615;42.702;23.314;2022-09-01T06:12:15;22.00;85.60
20911;DHT22;10615;42.702;23.314;2022-09-01T06:13:22;22.00;84.90
20911;DHT22;10615;42.702;23.314;2022-09-01T06:14:23;22.00;85.00
20911;DHT22;10615;42.702;23.314;2022-09-01T06:15:24;22.10;85.20
20911;DHT22;10615;42.702;23.314;2022-09-01T06:16:25;22.30;85.20
20911;DHT22;10615;42.702;23.314;2022-09-01T06:17:27;22.50;85.00
20911;DHT22;10615;42.702;23.314;2022-09-01T06:18:28;22.90;84.30
20911;DHT22;10615;42.702;23.314;2022-09-01T06:19:28;23.50;83.40
20911;DHT22;10615;42.702;23.314;2022-09-01T06:20:29;24.00;81.60
20911;DHT22;10615;42.702;23.314;2022-09-01T06:21:30;24.60;79.80
20911;DHT22;10615;42.702;23.314;2022-09-01T06:22:30;25.20;77.90
20911;DHT22;10615;42.702;23.314;2022-09-01T06:23:33;25.70;75.70
20911;DHT22;10615;42.702;23.314;2022-09-01T06:24:35;26.10;74.00
20911;DHT22;10615;42.702;23.314;2022-09-01T06:25:39;26.80;72.50
20911;DHT22;10615;42.702;23.314;2022-09-01T06:26:42;28.40;70.70
20911;DHT22;10615;42.702;23.314;2022-09-01T06:27:45;29.90;67.10
20911;DHT22;10615;42.702;23.314;2022-09-01T06:28:47;31.30;63.30
20911;DHT22;10615;42.702;23.314;2022-09-01T06:29:48;32.40;59.70
20911;DHT22;10615;42.702;23.314;2022-09-01T06:30:52;33.00;56.90